Portageville, Missouri
Current Conditions -  °F | °C
As of 6:55 PM on Friday 24 Oct 2014 (Local Time) from KDYR Reporting Station
Clear Clear  
Wind Chill: 61°   Ceiling: Unl
Heat Index: 61°   Visibility: 10mi
Dew Point: 45°   Wind: 0mph
Humidity: 55%   Direction: NA
Pressure: 30.09"   Gusts: NA
Location:  36.43°N, 89.7°W
Report Text: KDYR 242355Z 00000KT 10SM CLR 16/07 A3009 RMK AO1 10220 20160 402200060 52003
Loading
Personal Weather Stations






























Interactive Weather Map
Tropical Storm Tracking
New forecast layout! Learn more

10-Day Weather Forecast

Advertisements
Track Severe Weather on mobile